createdAt,value
2018-06-15T00:01:13.637Z,92.60
2018-06-15T00:03:41.221Z,92.60
2018-06-15T00:06:08.831Z,92.60
2018-06-15T00:08:37.175Z,92.70
2018-06-15T00:11:04.752Z,92.70
2018-06-15T00:13:32.903Z,92.70
2018-06-15T00:16:00.472Z,92.80
2018-06-15T00:18:28.045Z,92.40
2018-06-15T00:20:55.652Z,92.40
2018-06-15T00:23:23.224Z,92.50
2018-06-15T00:25:50.792Z,92.20
2018-06-15T00:28:18.430Z,92.20
2018-06-15T00:30:45.989Z,92.20
2018-06-15T00:33:13.554Z,92.30
2018-06-15T00:35:41.173Z,92.30
2018-06-15T00:38:08.740Z,92.30
2018-06-15T00:40:36.305Z,92.40
2018-06-15T00:43:04.674Z,92.50
2018-06-15T00:45:32.239Z,92.50
2018-06-15T00:47:59.908Z,92.50
2018-06-15T00:50:27.476Z,92.60
2018-06-15T00:52:56.069Z,92.60
2018-06-15T00:55:23.578Z,92.60
2018-06-15T00:57:51.928Z,92.70
2018-06-15T01:00:19.501Z,92.60
2018-06-15T01:02:47.067Z,92.70
2018-06-15T01:05:14.669Z,92.70
2018-06-15T01:07:42.250Z,92.70
2018-06-15T01:10:09.820Z,92.70
2018-06-15T01:12:38.189Z,92.60
2018-06-15T01:15:06.610Z,92.60
2018-06-15T01:17:34.181Z,92.50
2018-06-15T01:20:02.273Z,92.50
2018-06-15T01:22:29.844Z,92.50
2018-06-15T01:24:57.412Z,92.60
2018-06-15T01:27:25.013Z,92.60
2018-06-15T01:29:52.589Z,92.70
2018-06-15T01:32:20.165Z,92.70
2018-06-15T01:34:47.765Z,92.70
2018-06-15T01:37:16.158Z,92.90
2018-06-15T01:39:43.691Z,92.80
2018-06-15T01:42:11.305Z,92.90
2018-06-15T01:44:38.870Z,92.90
2018-06-15T01:47:06.435Z,93.00
2018-06-15T01:49:34.039Z,92.70
2018-06-15T01:52:01.609Z,92.70
2018-06-15T01:54:29.212Z,92.60
2018-06-15T01:56:56.767Z,92.70
2018-06-15T01:59:24.327Z,92.60
2018-06-15T02:01:51.902Z,92.60
2018-06-15T02:04:19.512Z,92.70
2018-06-15T02:06:47.080Z,93.00
2018-06-15T02:09:14.653Z,92.70
2018-06-15T02:11:43.024Z,92.70
2018-06-15T02:14:11.359Z,92.90
2018-06-15T02:16:38.930Z,92.70
2018-06-15T02:19:06.537Z,92.70
2018-06-15T02:21:34.872Z,92.80
2018-06-15T02:24:02.440Z,92.70
2018-06-15T02:26:30.073Z,92.80
2018-06-15T02:28:57.644Z,92.80
2018-06-15T02:31:25.214Z,92.90
2018-06-15T02:33:52.846Z,92.70
2018-06-15T02:36:21.153Z,92.70
2018-06-15T02:38:48.717Z,92.70
2018-06-15T02:41:16.316Z,92.70
2018-06-15T02:43:43.890Z,92.70
2018-06-15T02:46:12.224Z,92.80
2018-06-15T02:48:39.920Z,92.80
2018-06-15T02:51:07.435Z,92.90
2018-06-15T02:53:35.018Z,92.90
2018-06-15T02:56:02.615Z,92.60
2018-06-15T02:58:30.179Z,92.60
2018-06-15T03:00:57.755Z,92.60
2018-06-15T03:03:25.361Z,92.70
2018-06-15T03:05:52.948Z,92.70
2018-06-15T03:08:20.517Z,92.70
2018-06-15T03:10:48.908Z,92.70
2018-06-15T03:13:16.473Z,92.70
2018-06-15T03:15:44.047Z,92.70
2018-06-15T03:18:11.652Z,92.70
2018-06-15T03:20:39.214Z,92.70
2018-06-15T03:23:06.778Z,92.70
2018-06-15T03:25:34.384Z,92.70
2018-06-15T03:28:01.950Z,92.70
2018-06-15T03:30:29.517Z,92.80
2018-06-15T03:32:57.168Z,92.60
2018-06-15T03:35:24.732Z,92.50
2018-06-15T03:37:52.309Z,92.50
2018-06-15T03:40:19.917Z,92.50
2018-06-15T03:42:47.489Z,92.50
2018-06-15T03:45:15.822Z,93.00
2018-06-15T03:47:43.427Z,92.70
2018-06-15T03:50:11.003Z,92.40
2018-06-15T03:52:38.563Z,92.40
2018-06-15T03:55:06.594Z,92.40
2018-06-15T03:57:34.165Z,92.40
2018-06-15T04:00:01.738Z,92.40
2018-06-15T04:02:29.347Z,92.40
2018-06-15T04:04:56.915Z,92.60
2018-06-15T04:07:24.481Z,92.30
2018-06-15T04:09:52.324Z,92.30
2018-06-15T04:12:19.891Z,92.30
2018-06-15T04:14:47.467Z,92.40
2018-06-15T04:17:15.545Z,92.30
2018-06-15T04:19:43.125Z,92.30
2018-06-15T04:22:10.679Z,92.30
2018-06-15T04:24:38.322Z,92.40
2018-06-15T04:27:06.620Z,92.50
2018-06-15T04:29:34.225Z,92.40
2018-06-15T04:32:01.782Z,92.40
2018-06-15T04:34:30.118Z,92.40
2018-06-15T04:36:57.690Z,92.40
2018-06-15T04:39:25.319Z,92.10
2018-06-15T04:41:52.898Z,92.10
2018-06-15T04:44:20.510Z,92.30
2018-06-15T04:46:48.123Z,92.00
2018-06-15T04:49:15.689Z,92.00
2018-06-15T04:51:43.277Z,92.00
2018-06-15T04:54:10.877Z,92.10
2018-06-15T04:56:38.454Z,92.20
2018-06-15T04:59:06.027Z,92.20
2018-06-15T05:01:34.017Z,92.20
2018-06-15T05:04:01.595Z,92.00
2018-06-15T05:06:29.161Z,92.10
2018-06-15T05:08:56.759Z,92.30
2018-06-15T05:11:24.330Z,92.30
2018-06-15T05:13:51.895Z,92.20
2018-06-15T05:16:19.502Z,92.10
2018-06-15T05:18:47.081Z,92.00
2018-06-15T05:21:14.649Z,91.80
2018-06-15T05:23:43.036Z,91.50
2018-06-15T05:26:11.371Z,91.40
2018-06-15T05:28:38.932Z,91.30
2018-06-15T05:31:06.526Z,91.30
2018-06-15T05:33:34.100Z,91.30
2018-06-15T05:36:02.432Z,91.30
2018-06-15T05:38:30.514Z,91.30
2018-06-15T05:40:58.093Z,91.30
2018-06-15T05:43:25.664Z,91.30
2018-06-15T05:45:53.281Z,91.20
2018-06-15T05:48:20.842Z,91.00
2018-06-15T05:50:48.413Z,91.00
2018-06-15T05:53:16.075Z,91.10
2018-06-15T05:55:43.712Z,91.20
2018-06-15T05:58:11.216Z,91.10
2018-06-15T06:00:38.835Z,91.10
2018-06-15T06:03:06.402Z,91.00
2018-06-15T06:05:33.972Z,90.80
2018-06-15T06:08:01.577Z,90.60
2018-06-15T06:10:29.150Z,90.60
2018-06-15T06:12:57.485Z,90.50
2018-06-15T06:15:25.099Z,90.50
2018-06-15T06:17:52.662Z,90.50
2018-06-15T06:20:20.221Z,90.50
2018-06-15T06:22:47.830Z,90.40
2018-06-15T06:25:15.404Z,90.20
2018-06-15T06:27:43.202Z,90.00
2018-06-15T06:30:11.567Z,88.10
2018-06-15T06:32:39.205Z,88.10
2018-06-15T06:35:06.704Z,87.70
2018-06-15T06:37:34.315Z,87.70
2018-06-15T06:40:01.878Z,87.40
2018-06-15T06:42:29.442Z,87.10
2018-06-15T06:44:57.091Z,87.20
2018-06-15T06:47:24.658Z,87.20
2018-06-15T06:49:52.223Z,87.10
2018-06-15T06:52:20.770Z,86.70
2018-06-15T06:54:48.329Z,86.00
2018-06-15T06:57:15.907Z,85.70
2018-06-15T06:59:43.541Z,86.00
2018-06-15T07:02:11.101Z,86.10
2018-06-15T07:04:38.659Z,85.70
2018-06-15T07:07:07.034Z,85.60
2018-06-15T07:09:35.363Z,85.70
2018-06-15T07:12:03.246Z,85.60
2018-06-15T07:14:31.828Z,85.10
2018-06-15T07:16:59.387Z,84.90
2018-06-15T07:19:26.942Z,84.50
2018-06-15T07:21:54.558Z,84.20
2018-06-15T07:24:22.117Z,84.00
2018-06-15T07:26:50.441Z,83.70
2018-06-15T07:29:18.055Z,83.60
2018-06-15T07:31:46.378Z,83.50
2018-06-15T07:34:13.958Z,83.50
2018-06-15T07:36:41.609Z,83.30
2018-06-15T07:39:09.174Z,83.10
2018-06-15T07:41:36.742Z,82.90
2018-06-15T07:44:04.354Z,82.40
2018-06-15T07:46:32.688Z,82.20
2018-06-15T07:49:00.243Z,82.20
2018-06-15T07:51:28.316Z,82.30
2018-06-15T07:53:55.884Z,81.70
2018-06-15T07:56:23.443Z,81.50
2018-06-15T07:58:51.764Z,81.40
2018-06-15T08:01:19.332Z,81.60
2018-06-15T08:03:46.883Z,81.60
2018-06-15T08:06:15.257Z,82.20
2018-06-15T08:08:42.814Z,82.10
2018-06-15T08:11:11.142Z,82.40
2018-06-15T08:13:38.754Z,82.30
2018-06-15T08:16:06.323Z,82.30
2018-06-15T08:18:33.874Z,82.30
2018-06-15T08:21:02.224Z,82.40
2018-06-15T08:23:29.773Z,82.50
2018-06-15T08:25:57.327Z,82.30
2018-06-15T08:28:24.956Z,82.30
2018-06-15T08:30:52.510Z,82.30
2018-06-15T08:33:20.835Z,82.80
2018-06-15T08:35:49.253Z,82.80
2018-06-15T08:38:16.813Z,83.10
2018-06-15T08:40:44.956Z,82.80
2018-06-15T08:43:12.554Z,82.20
2018-06-15T08:45:40.107Z,81.60
2018-06-15T08:48:07.656Z,81.60
2018-06-15T08:50:35.713Z,81.20
2018-06-15T08:53:03.581Z,81.00
2018-06-15T08:55:31.137Z,80.70
2018-06-15T08:57:59.144Z,80.70
2018-06-15T09:00:26.700Z,80.60
2018-06-15T09:02:54.267Z,80.30
2018-06-15T09:05:21.870Z,80.20
2018-06-15T09:07:49.436Z,79.90
2018-06-15T09:10:16.991Z,79.60
2018-06-15T09:12:44.593Z,79.50
2018-06-15T09:15:12.201Z,79.30
2018-06-15T09:17:40.523Z,78.40
2018-06-15T09:20:08.167Z,78.30
2018-06-15T09:22:35.722Z,78.20
2018-06-15T09:25:03.277Z,78.10
2018-06-15T09:27:30.880Z,78.10
2018-06-15T09:29:58.439Z,78.00
2018-06-15T09:32:25.991Z,78.30
2018-06-15T09:34:53.596Z,77.60
2018-06-15T09:37:21.153Z,77.80
2018-06-15T09:39:49.481Z,76.80
2018-06-15T09:42:17.566Z,77.40
2018-06-15T09:44:45.129Z,77.30
2018-06-15T09:47:12.685Z,76.60
2018-06-15T09:49:40.764Z,75.90
2018-06-15T09:52:08.328Z,75.80
2018-06-15T09:54:35.886Z,75.10
2018-06-15T09:57:03.484Z,75.40
2018-06-15T09:59:31.807Z,75.40
2018-06-15T10:01:59.370Z,75.20
2018-06-15T10:04:27.901Z,75.90
2018-06-15T10:09:23.023Z,73.80
2018-06-15T10:11:51.062Z,72.90
2018-06-15T10:14:18.612Z,70.90
2018-06-15T10:16:46.229Z,71.10
2018-06-15T10:19:13.771Z,71.20
2018-06-15T10:21:41.331Z,71.50
2018-06-15T10:24:08.881Z,71.40
2018-06-15T10:26:36.520Z,71.00
2018-06-15T10:29:04.071Z,70.60
2018-06-15T10:31:31.623Z,70.50
2018-06-15T10:33:59.259Z,69.70
2018-06-15T10:36:27.586Z,68.60
2018-06-15T10:38:55.141Z,68.50
2018-06-15T10:41:22.788Z,68.80
2018-06-15T10:43:50.340Z,68.90
2018-06-15T10:46:17.978Z,68.40
2018-06-15T10:48:46.355Z,68.10
2018-06-15T10:51:13.910Z,67.90
2018-06-15T10:53:41.465Z,67.60
2018-06-15T10:56:09.107Z,67.00
2018-06-15T10:58:36.676Z,66.20
2018-06-15T11:01:04.225Z,66.20
2018-06-15T11:03:31.830Z,64.50
2018-06-15T11:06:00.166Z,62.80
2018-06-15T11:08:27.725Z,62.70
2018-06-15T11:10:55.350Z,61.90
2018-06-15T11:13:23.676Z,60.60
2018-06-15T11:15:51.221Z,60.50
2018-06-15T11:18:18.827Z,60.30
2018-06-15T11:20:46.381Z,60.60
2018-06-15T11:23:13.937Z,61.40
2018-06-15T11:25:41.535Z,62.40
2018-06-15T11:28:09.089Z,61.80
2018-06-15T11:30:37.427Z,61.20
2018-06-15T11:33:05.028Z,61.20
2018-06-15T11:35:33.354Z,63.10
2018-06-15T11:38:00.920Z,63.10
2018-06-15T11:40:29.515Z,63.10
2018-06-15T11:42:57.069Z,62.50
2018-06-15T11:45:24.629Z,62.90
2018-06-15T11:47:52.231Z,63.10
2018-06-15T11:50:19.794Z,63.40
2018-06-15T11:52:48.113Z,64.30
2018-06-15T11:55:15.752Z,63.90
2018-06-15T11:57:43.307Z,63.70
2018-06-15T12:00:10.861Z,63.90
2018-06-15T12:02:39.232Z,64.00
2018-06-15T12:05:07.557Z,62.70
2018-06-15T12:07:35.105Z,61.90
2018-06-15T12:10:02.709Z,61.30
2018-06-15T12:12:30.261Z,61.10
2018-06-15T12:14:57.816Z,60.50
2018-06-15T12:17:25.446Z,60.60
2018-06-15T12:19:53.007Z,56.70
2018-06-15T12:22:20.565Z,56.90
2018-06-15T12:24:48.200Z,57.70
2018-06-15T12:27:15.756Z,58.10
2018-06-15T12:29:43.303Z,59.00
2018-06-15T12:32:10.919Z,58.50
2018-06-15T12:34:38.917Z,57.90
2018-06-15T12:37:06.473Z,57.10
2018-06-15T12:39:34.074Z,57.20
2018-06-15T12:42:01.628Z,57.70
2018-06-15T12:44:29.197Z,57.20
2018-06-15T12:46:56.804Z,57.80
2018-06-15T12:49:24.365Z,57.80
2018-06-15T12:51:51.916Z,57.60
2018-06-15T12:54:20.940Z,57.30
2018-06-15T12:56:48.808Z,57.70
2018-06-15T12:59:16.401Z,57.80
2018-06-15T13:01:44.402Z,58.00
2018-06-15T13:04:11.955Z,58.20
2018-06-15T13:06:40.286Z,58.70
2018-06-15T13:09:07.886Z,58.70
2018-06-15T13:11:35.443Z,58.80
2018-06-15T13:14:03.759Z,58.50
2018-06-15T13:16:31.902Z,58.90
2018-06-15T13:18:59.417Z,59.40
2018-06-15T13:21:26.977Z,60.00
2018-06-15T13:23:54.589Z,60.00
2018-06-15T13:26:22.911Z,59.00
2018-06-15T13:28:50.480Z,59.00
2018-06-15T13:31:18.452Z,58.90
2018-06-15T13:36:13.578Z,58.80
2018-06-15T13:38:41.165Z,58.80
2018-06-15T13:41:08.722Z,58.50
2018-06-15T13:43:36.284Z,58.50
2018-06-15T13:46:03.893Z,58.60
2018-06-15T13:48:31.452Z,58.60
2018-06-15T13:50:59.016Z,58.30
2018-06-15T13:53:26.632Z,58.10
2018-06-15T13:55:54.189Z,58.60
2018-06-15T13:58:21.745Z,58.70
2018-06-15T14:00:49.386Z,58.40
2018-06-15T14:03:16.942Z,58.30
2018-06-15T14:05:44.502Z,58.20
2018-06-15T14:08:12.299Z,57.90
2018-06-15T14:10:39.853Z,58.10
2018-06-15T14:13:07.402Z,58.40
2018-06-15T14:15:35.010Z,58.70
2018-06-15T14:18:02.570Z,58.80
2018-06-15T14:20:30.885Z,58.20
2018-06-15T14:22:58.874Z,58.20
2018-06-15T14:25:26.439Z,58.30
2018-06-15T14:27:53.998Z,58.10
2018-06-15T14:30:21.795Z,57.90
2018-06-15T14:32:49.356Z,58.10
2018-06-15T14:35:16.898Z,57.90
2018-06-15T14:37:44.534Z,57.90
2018-06-15T14:40:12.101Z,58.50
2018-06-15T14:42:39.655Z,57.30
2018-06-15T14:45:07.326Z,55.90
2018-06-15T14:47:34.857Z,56.10
2018-06-15T14:50:02.412Z,55.40
2018-06-15T14:52:30.090Z,54.90
2018-06-15T14:54:57.650Z,54.40
2018-06-15T14:57:25.203Z,53.70
2018-06-15T14:59:52.821Z,53.40
2018-06-15T15:02:23.099Z,52.20
2018-06-15T15:04:50.702Z,51.40
2018-06-15T15:07:18.259Z,50.60
2018-06-15T15:09:45.823Z,49.70
2018-06-15T15:12:13.412Z,49.90
2018-06-15T15:14:41.791Z,50.00
2018-06-15T15:17:10.110Z,50.10
2018-06-15T15:19:37.663Z,50.10
2018-06-15T15:22:06.272Z,50.80
2018-06-15T15:24:33.839Z,49.20
2018-06-15T15:27:01.403Z,49.20
2018-06-15T15:29:29.007Z,49.50
2018-06-15T15:31:56.560Z,48.50
2018-06-15T15:34:24.118Z,48.30
2018-06-15T15:36:52.530Z,48.30
2018-06-15T15:39:20.091Z,48.40
2018-06-15T15:41:47.646Z,48.30
2018-06-15T15:44:15.281Z,48.80
2018-06-15T15:46:42.845Z,48.50
2018-06-15T15:49:11.164Z,48.50
2018-06-15T15:51:38.801Z,48.40
2018-06-15T15:54:06.360Z,48.20
2018-06-15T15:56:33.910Z,48.40
2018-06-15T15:59:02.276Z,48.90
2018-06-15T16:01:29.833Z,48.30
2018-06-15T16:03:57.384Z,49.00
2018-06-15T16:06:24.999Z,48.90
2018-06-15T16:08:52.546Z,49.00
2018-06-15T16:11:20.870Z,48.80
2018-06-15T16:13:48.486Z,48.80
2018-06-15T16:16:16.811Z,49.20
2018-06-15T16:18:44.370Z,49.20
2018-06-15T16:21:12.002Z,49.10
2018-06-15T16:23:39.588Z,48.20
2018-06-15T16:26:07.139Z,48.00
2018-06-15T16:28:34.767Z,47.60
2018-06-15T16:31:03.109Z,46.20
2018-06-15T16:33:30.660Z,46.10
2018-06-15T16:35:58.660Z,44.90
2018-06-15T16:38:26.218Z,44.90
2018-06-15T16:40:53.764Z,44.00
2018-06-15T16:43:21.419Z,43.50
2018-06-15T16:45:49.682Z,43.20
2018-06-15T16:48:17.241Z,43.40
2018-06-15T16:50:44.842Z,43.20
2018-06-15T16:53:12.394Z,43.60
2018-06-15T16:55:39.948Z,43.90
2018-06-15T16:58:08.046Z,43.90
2018-06-15T17:00:35.568Z,43.30
2018-06-15T17:03:03.123Z,43.30
2018-06-15T17:05:30.730Z,42.80
2018-06-15T17:07:58.291Z,42.70
2018-06-15T17:10:25.843Z,42.50
2018-06-15T17:12:53.480Z,42.40
2018-06-15T17:15:21.040Z,42.80
2018-06-15T17:17:48.600Z,42.80
2018-06-15T17:20:16.628Z,43.20
2018-06-15T17:22:44.182Z,43.80
2018-06-15T17:25:12.496Z,44.90
2018-06-15T17:27:40.101Z,44.90
2018-06-15T17:30:07.652Z,45.30
2018-06-15T17:32:35.204Z,45.60
2018-06-15T17:35:02.821Z,46.10
2018-06-15T17:37:30.404Z,47.20
2018-06-15T17:39:58.697Z,47.30
2018-06-15T17:42:26.969Z,47.30
2018-06-15T17:44:54.516Z,47.70
2018-06-15T17:47:22.067Z,48.30
2018-06-15T17:49:50.197Z,48.60
2018-06-15T17:52:17.756Z,49.20
2018-06-15T17:54:45.307Z,49.70
2018-06-15T17:57:12.911Z,50.00
2018-06-15T17:59:41.301Z,50.30
2018-06-15T18:02:08.805Z,50.30
2018-06-15T18:04:36.444Z,50.50
2018-06-15T18:07:04.001Z,50.70
2018-06-15T18:09:31.551Z,51.00
2018-06-15T18:11:59.154Z,51.30
2018-06-15T18:14:26.703Z,51.30
2018-06-15T18:16:54.254Z,51.50
2018-06-15T18:19:21.879Z,51.00
2018-06-15T18:21:50.206Z,51.00
2018-06-15T18:24:17.766Z,50.90
2018-06-15T18:26:45.936Z,51.10
2018-06-15T18:29:13.490Z,51.60
2018-06-15T18:31:41.061Z,52.20
2018-06-15T18:34:08.664Z,53.00
2018-06-15T18:36:36.982Z,54.80
2018-06-15T18:39:04.536Z,54.80
2018-06-15T18:41:32.538Z,55.70
2018-06-15T18:44:00.096Z,56.70
2018-06-15T18:46:27.653Z,57.70
2018-06-15T18:48:55.255Z,58.50
2018-06-15T18:51:22.830Z,60.00
2018-06-15T18:53:50.388Z,59.90
2018-06-15T18:56:18.028Z,60.20
2018-06-15T18:58:45.589Z,60.40
2018-06-15T19:01:13.143Z,60.90
2018-06-15T19:03:40.746Z,62.00
2018-06-15T19:06:09.067Z,62.70
2018-06-15T19:08:36.627Z,62.70
2018-06-15T19:11:04.822Z,63.50
2018-06-15T19:13:32.385Z,64.10
2018-06-15T19:15:59.934Z,64.70
2018-06-15T19:18:27.535Z,65.20
2018-06-15T19:20:55.856Z,66.00
2018-06-15T19:23:23.408Z,66.00
2018-06-15T19:25:51.048Z,66.30
2018-06-15T19:28:18.604Z,66.80
2018-06-15T19:30:46.928Z,67.70
2018-06-15T19:33:15.404Z,67.70
2018-06-15T19:35:42.955Z,68.20
2018-06-15T19:38:10.507Z,68.60
2018-06-15T19:40:38.508Z,68.80
2018-06-15T19:43:06.062Z,69.10
2018-06-15T19:45:33.621Z,69.20
2018-06-15T19:48:01.266Z,69.40
2018-06-15T19:50:28.816Z,69.80
2018-06-15T19:52:56.371Z,70.20
2018-06-15T19:55:24.684Z,70.80
2018-06-15T19:57:52.654Z,71.30
2018-06-15T20:00:20.213Z,71.70
2018-06-15T20:02:48.777Z,72.20
2018-06-15T20:05:16.400Z,72.50
2018-06-15T20:07:47.001Z,72.90
2018-06-15T20:10:14.744Z,73.30
2018-06-15T20:12:42.302Z,73.70
2018-06-15T20:15:09.854Z,74.10
2018-06-15T20:17:37.464Z,74.50
2018-06-15T20:20:05.014Z,75.00
2018-06-15T20:22:32.573Z,75.20
2018-06-15T20:25:00.183Z,75.20
2018-06-15T20:27:27.740Z,75.40
2018-06-15T20:29:55.293Z,74.80
2018-06-15T20:32:24.589Z,75.50
2018-06-15T20:34:52.143Z,75.40
2018-06-15T20:37:19.704Z,76.00
2018-06-15T20:39:47.751Z,76.30
2018-06-15T20:42:15.324Z,76.40
2018-06-15T20:44:42.880Z,77.00
2018-06-15T20:47:10.523Z,76.50
2018-06-15T20:49:38.079Z,76.80
2018-06-15T20:52:05.637Z,77.00
2018-06-15T20:54:33.678Z,77.40
2018-06-15T20:57:01.247Z,78.00
2018-06-15T20:59:29.975Z,77.60
2018-06-15T21:01:57.583Z,77.60
2018-06-15T21:04:25.145Z,78.00
2018-06-15T21:06:52.704Z,78.50
2018-06-15T21:09:20.359Z,79.10
2018-06-15T21:11:47.907Z,79.60
2018-06-15T21:14:15.461Z,80.00
2018-06-15T21:16:43.101Z,80.20
2018-06-15T21:19:10.658Z,81.10
2018-06-15T21:21:38.219Z,80.50
2018-06-15T21:24:05.828Z,80.70
2018-06-15T21:26:33.390Z,80.90
2018-06-15T21:29:00.947Z,81.00
2018-06-15T21:31:28.585Z,81.20
2018-06-15T21:33:56.651Z,81.50
2018-06-15T21:36:24.201Z,81.90
2018-06-15T21:38:52.158Z,82.70
2018-06-15T21:41:19.713Z,82.10
2018-06-15T21:43:47.274Z,82.20
2018-06-15T21:46:14.906Z,82.40
2018-06-15T21:48:43.233Z,82.80
2018-06-15T21:51:10.796Z,82.80
2018-06-15T21:53:38.400Z,83.00
2018-06-15T21:56:06.011Z,83.20
2018-06-15T21:58:33.568Z,83.50
2018-06-15T22:01:01.194Z,84.00
2018-06-15T22:03:29.523Z,84.20
2018-06-15T22:05:57.098Z,84.10
2018-06-15T22:08:24.705Z,84.20
2018-06-15T22:10:53.240Z,84.40
2018-06-15T22:13:20.811Z,84.30
2018-06-15T22:15:48.430Z,84.80
2018-06-15T22:18:15.983Z,85.10
2018-06-15T22:20:43.547Z,85.60
2018-06-15T22:23:11.156Z,85.70
2018-06-15T22:25:38.712Z,85.60
2018-06-15T22:28:06.273Z,85.50
2018-06-15T22:30:34.340Z,85.60
2018-06-15T22:33:01.913Z,85.70
2018-06-15T22:35:29.468Z,86.10
2018-06-15T22:37:57.739Z,86.10
2018-06-15T22:40:25.286Z,85.30
2018-06-15T22:42:52.841Z,85.50
2018-06-15T22:45:21.039Z,85.80
2018-06-15T22:47:48.594Z,86.00
2018-06-15T22:50:16.154Z,86.20
2018-06-15T22:52:43.740Z,86.30
2018-06-15T22:55:11.296Z,86.20
2018-06-15T22:57:38.855Z,86.30
2018-06-15T23:00:06.866Z,86.50
2018-06-15T23:02:35.197Z,86.80
2018-06-15T23:05:02.757Z,86.70
2018-06-15T23:07:30.366Z,86.90
2018-06-15T23:09:58.687Z,87.00
2018-06-15T23:12:26.237Z,87.00
2018-06-15T23:14:53.828Z,87.30
2018-06-15T23:17:21.388Z,87.70
2018-06-15T23:19:48.945Z,88.20
2018-06-15T23:22:16.560Z,87.60
2018-06-15T23:24:44.120Z,86.70
2018-06-15T23:27:11.679Z,86.40
2018-06-15T23:29:39.288Z,86.10
2018-06-15T23:32:06.854Z,86.30
2018-06-15T23:34:34.418Z,86.60
2018-06-15T23:37:02.003Z,86.90
2018-06-15T23:39:29.564Z,87.00
2018-06-15T23:41:57.124Z,87.30
2018-06-15T23:44:24.765Z,87.60
2018-06-15T23:46:52.341Z,87.90
2018-06-15T23:49:19.909Z,88.10
2018-06-15T23:51:47.948Z,88.40
2018-06-15T23:54:15.504Z,87.70
2018-06-15T23:56:43.057Z,87.60
2018-06-15T23:59:10.651Z,87.60
